createdAt,value
2022-12-19T00:00:54.617Z,1.6
2022-12-19T00:10:55.458Z,1.7
2022-12-19T00:30:56.964Z,1.7
2022-12-19T00:40:57.050Z,1.8
2022-12-19T00:50:57.922Z,1.9
2022-12-19T01:00:58.650Z,2
2022-12-19T01:21:00.125Z,2.1
2022-12-19T01:31:00.844Z,2.4
2022-12-19T01:41:01.198Z,2.5
2022-12-19T01:51:02.534Z,2.6
2022-12-19T02:01:01.948Z,2.7
2022-12-19T02:11:02.620Z,2.9
2022-12-19T02:21:03.217Z,2.9
2022-12-19T02:31:03.947Z,3
2022-12-19T02:41:03.645Z,3.1
2022-12-19T02:51:03.752Z,3.3
2022-12-19T03:01:04.884Z,3.5
2022-12-19T03:11:05.776Z,3.7
2022-12-19T03:21:05.949Z,3.7
2022-12-19T03:31:06.046Z,4
2022-12-19T03:41:07.007Z,4.1
2022-12-19T03:51:07.962Z,4.1
2022-12-19T04:01:08.889Z,4.2
2022-12-19T04:11:09.658Z,4.3
2022-12-19T04:21:09.899Z,4.2
2022-12-19T04:31:10.897Z,4.2
2022-12-19T04:41:11.535Z,4.4
2022-12-19T04:51:11.823Z,4.4
2022-12-19T05:01:12.101Z,4.4
2022-12-19T05:11:17.470Z,4.2
2022-12-19T05:21:13.150Z,4.3
2022-12-19T05:31:13.997Z,4.4
2022-12-19T05:41:14.374Z,4.5
2022-12-19T05:51:15.087Z,4.6
2022-12-19T06:01:15.678Z,4.6
2022-12-19T06:11:15.774Z,4.6
2022-12-19T06:21:16.553Z,4.6
2022-12-19T06:31:16.975Z,4.7
2022-12-19T06:41:17.628Z,4.8
2022-12-19T06:51:17.758Z,4.8
2022-12-19T07:01:18.239Z,4.9
2022-12-19T07:21:19.122Z,5.3
2022-12-19T07:31:19.620Z,5.4
2022-12-19T07:41:20.497Z,5.6
2022-12-19T07:51:20.658Z,5.7
2022-12-19T08:01:21.655Z,5.9
2022-12-19T08:11:21.875Z,6
2022-12-19T08:31:23.702Z,6.1
2022-12-19T08:41:23.999Z,6.1
2022-12-19T08:51:24.486Z,6.2
2022-12-19T09:01:25.100Z,6.3
2022-12-19T09:11:26.002Z,6.3
2022-12-19T09:21:26.851Z,6.4
2022-12-19T09:31:27.360Z,6.6
2022-12-19T09:41:28.200Z,6.8
2022-12-19T09:51:28.900Z,7.1
2022-12-19T10:12:42.047Z,7.3
2022-12-19T10:21:51.137Z,7.5
2022-12-19T10:31:31.062Z,7.5
2022-12-19T10:41:31.275Z,7.7
2022-12-19T10:51:32.103Z,7.7
2022-12-19T11:01:33.251Z,7.8
2022-12-19T11:12:25.352Z,8
2022-12-19T11:25:51.571Z,7.9
2022-12-19T11:32:29.634Z,7.8
2022-12-19T11:34:12.867Z,7.8
2022-12-19T11:41:43.033Z,7.8
2022-12-19T11:51:43.490Z,7.9
2022-12-19T12:01:43.964Z,7.9
2022-12-19T12:14:35.557Z,8.1
2022-12-19T12:26:14.130Z,8.1
2022-12-19T12:35:26.414Z,8.1
2022-12-19T12:41:45.808Z,8.2
2022-12-19T13:01:47.047Z,8.2
2022-12-19T13:11:47.600Z,8.4
2022-12-19T13:21:47.812Z,8.6
2022-12-19T13:31:48.289Z,8.6
2022-12-19T13:41:48.376Z,8.6
2022-12-19T13:51:49.005Z,8.6
2022-12-19T14:01:49.462Z,8.7
2022-12-19T14:12:27.367Z,8.7
2022-12-19T14:22:03.049Z,8.8
2022-12-19T14:31:53.371Z,8.7
2022-12-19T14:41:54.651Z,8.6
2022-12-19T14:54:19.752Z,8.5
2022-12-19T15:01:53.561Z,8.5
2022-12-19T15:12:04.334Z,8.5
2022-12-19T15:21:54.656Z,8.5
2022-12-19T15:31:55.387Z,8.5
2022-12-19T15:41:55.390Z,8.5
2022-12-19T16:01:56.858Z,8.6
2022-12-19T16:31:59.663Z,8.8
2022-12-19T16:42:00.605Z,8.8
2022-12-19T16:52:01.352Z,9
2022-12-19T17:02:02.567Z,8.9
2022-12-19T17:12:03.486Z,9.1
2022-12-19T17:32:04.845Z,9.1
2022-12-19T17:52:06.387Z,9.2
2022-12-19T18:02:07.031Z,9.2
2022-12-19T18:12:07.757Z,9.2
2022-12-19T18:32:08.869Z,9.3
2022-12-19T18:42:09.348Z,9.3
2022-12-19T18:52:10.235Z,9.4
2022-12-19T19:02:10.873Z,9.4
2022-12-19T19:12:11.031Z,9.5
2022-12-19T19:22:11.607Z,9.5
2022-12-19T19:32:12.190Z,9.6
2022-12-19T19:42:12.481Z,9.6
2022-12-19T19:52:13.246Z,9.7
2022-12-19T20:02:13.731Z,9.9
2022-12-19T20:12:13.847Z,9.9
2022-12-19T20:22:14.709Z,10.1
2022-12-19T20:32:15.245Z,10.2
2022-12-19T20:42:15.639Z,10
2022-12-19T20:52:16.273Z,10
2022-12-19T21:02:17.049Z,10
2022-12-19T21:12:17.552Z,10.2
2022-12-19T21:22:18.278Z,10.3
2022-12-19T21:32:19.289Z,10.3
2022-12-19T21:42:19.040Z,10.3
2022-12-19T21:52:20.063Z,10.3
2022-12-19T22:02:21.208Z,10.3
2022-12-19T22:12:21.554Z,10.4
2022-12-19T22:22:21.916Z,10.4
2022-12-19T22:32:22.423Z,10.5
2022-12-19T22:42:23.274Z,10.4
2022-12-19T22:52:23.697Z,10.5
2022-12-19T23:02:24.450Z,10.4
2022-12-19T23:12:25.020Z,10.5
2022-12-19T23:22:25.429Z,10.6
2022-12-19T23:32:26.389Z,10.6
2022-12-19T23:42:26.693Z,10.8
2022-12-19T23:52:27.382Z,10.9
